Pagina principale
METAR-TAF:

METAR-TAF

Aeroporti :

Nancy, Francia

latitudine: 48-41N, longitudine: 006-13E, altezza: 225 m

Osservazione

Il bollettino è stato emesso 42 minuti fa, alle 00:30 UTC
Vento 6 kt da ovest, variando fra sud-ovest e nord-ovest
Temperature 13°C
Umidità 77%
Pressione 1020 hPa
Visibilità 10 km o più
nessuna nube inferiore a 1500 m e nessun cumulonembo

METAR: LFSN 280030Z AUTO 26006KT 230V310 CAVOK 13/09 Q1020

Ora: 03:12 (01:12 UTC)


TAF: mancante

Osservazioni e previsioni meteorologiche di più di 4000 aeroporti (messaggi METAR e TAF).

Le stazioni disponibili sono rappresentate dai dischi gialli e rossi sulla carta.

Puntare il mouse per vedere il nome della stazione.

Clicca sopra per visualizzare le osservazioni e previsioni meteorologiche.

Per cambiare la mappa : fare clic sui pulsanti verdi con una croce nera per ingrandire, il pulsante verde con un trattino per diminuire, o sulla freccia verde per le mappe adiacenti.


METAR-TAF: